createdAt,value
2023-05-09T00:02:01.150Z,7.22
2023-05-09T00:05:06.277Z,7.03
2023-05-09T00:08:10.364Z,7.85
2023-05-09T00:11:14.059Z,7.65
2023-05-09T00:14:19.251Z,6.85
2023-05-09T00:17:25.845Z,6.50
2023-05-09T00:20:29.265Z,6.82
2023-05-09T00:23:32.866Z,6.60
2023-05-09T00:26:36.764Z,6.82
2023-05-09T00:29:40.163Z,6.63
2023-05-09T00:32:44.083Z,8.90
2023-05-09T00:35:48.248Z,7.57
2023-05-09T00:38:52.412Z,7.68
2023-05-09T00:41:59.109Z,7.63
2023-05-09T00:45:05.738Z,7.55
2023-05-09T00:48:09.593Z,8.45
2023-05-09T00:51:13.535Z,8.02
2023-05-09T00:54:16.974Z,8.15
2023-05-09T00:57:21.083Z,8.13
2023-05-09T01:00:24.741Z,7.97
2023-05-09T01:03:29.448Z,7.45
2023-05-09T01:07:06.616Z,6.68
2023-05-09T01:10:39.828Z,7.78
2023-05-09T01:13:55.364Z,6.13
2023-05-09T01:17:16.476Z,7.30
2023-05-09T01:20:34.781Z,6.90
2023-05-09T01:24:15.312Z,7.32
2023-05-09T01:27:56.580Z,6.72
2023-05-09T01:31:00.211Z,6.22
2023-05-09T01:34:06.487Z,5.80
2023-05-09T01:37:11.736Z,6.43
2023-05-09T01:40:17.356Z,6.00
2023-05-09T01:43:23.573Z,6.95
2023-05-09T01:46:29.382Z,6.10
2023-05-09T01:49:34.773Z,5.80
2023-05-09T01:52:41.048Z,6.00
2023-05-09T01:55:45.148Z,5.55
2023-05-09T01:58:52.120Z,5.38
2023-05-09T02:01:57.133Z,5.32
2023-05-09T02:05:03.161Z,5.72
2023-05-09T02:08:07.675Z,5.50
2023-05-09T02:11:11.943Z,6.18
2023-05-09T02:14:15.617Z,5.82
2023-05-09T02:17:20.102Z,5.68
2023-05-09T02:20:23.732Z,6.28
2023-05-09T02:23:27.600Z,5.82
2023-05-09T02:26:32.059Z,5.97
2023-05-09T02:29:43.270Z,5.82
2023-05-09T02:32:49.752Z,6.57
2023-05-09T02:35:57.485Z,6.32
2023-05-09T02:39:01.918Z,6.53
2023-05-09T02:42:14.333Z,6.78
2023-05-09T02:45:18.347Z,6.78
2023-05-09T02:48:22.101Z,6.40
2023-05-09T02:51:25.704Z,6.82
2023-05-09T02:54:29.582Z,6.53
2023-05-09T02:57:33.382Z,6.60
2023-05-09T03:00:37.482Z,6.95
2023-05-09T03:03:42.418Z,7.35
2023-05-09T03:06:47.054Z,7.07
2023-05-09T03:09:51.011Z,7.20
2023-05-09T03:12:55.173Z,7.65
2023-05-09T03:15:59.109Z,6.85
2023-05-09T03:19:02.058Z,7.82
2023-05-09T03:22:05.046Z,8.23
2023-05-09T03:25:13.488Z,8.40
2023-05-09T03:28:17.577Z,7.28
2023-05-09T03:31:21.046Z,7.68
2023-05-09T03:34:25.372Z,7.78
2023-05-09T03:37:28.593Z,7.80
2023-05-09T03:40:33.409Z,8.00
2023-05-09T03:43:44.060Z,9.18
2023-05-09T03:46:48.875Z,8.82
2023-05-09T03:49:54.173Z,10.07
2023-05-09T03:52:59.475Z,9.20
2023-05-09T03:56:03.128Z,11.60
2023-05-09T03:59:11.021Z,11.05
2023-05-09T04:02:15.042Z,10.07
2023-05-09T04:05:20.861Z,10.45
2023-05-09T04:08:25.128Z,11.10
2023-05-09T04:11:29.559Z,11.88
2023-05-09T04:14:35.486Z,11.50
2023-05-09T04:17:39.250Z,11.50
2023-05-09T04:20:42.881Z,12.07
2023-05-09T04:23:49.384Z,12.15
2023-05-09T04:26:55.845Z,11.45
2023-05-09T04:30:02.760Z,11.07
2023-05-09T04:33:06.870Z,11.27
2023-05-09T04:36:11.505Z,11.63
2023-05-09T04:39:15.452Z,11.25
2023-05-09T04:42:28.620Z,12.35
2023-05-09T04:45:32.445Z,14.00
2023-05-09T04:48:37.916Z,13.13
2023-05-09T04:51:41.606Z,12.73
2023-05-09T04:54:45.790Z,12.95
2023-05-09T04:57:51.658Z,12.57
2023-05-09T05:00:56.135Z,13.15
2023-05-09T05:04:00.019Z,12.65
2023-05-09T05:07:06.516Z,12.40
2023-05-09T05:10:11.944Z,12.10
2023-05-09T05:13:19.359Z,11.73
2023-05-09T05:16:26.515Z,12.85
2023-05-09T05:19:30.691Z,12.75
2023-05-09T05:22:34.983Z,12.30
2023-05-09T05:25:39.125Z,12.93
2023-05-09T05:28:42.912Z,12.05
2023-05-09T05:31:47.148Z,12.30
2023-05-09T05:34:50.918Z,14.23
2023-05-09T05:37:55.113Z,12.93
2023-05-09T05:40:59.137Z,13.20
2023-05-09T05:44:04.761Z,13.82
2023-05-09T05:47:09.535Z,13.70
2023-05-09T05:50:14.526Z,13.45
2023-05-09T05:53:18.626Z,12.30
2023-05-09T05:56:23.698Z,14.23
2023-05-09T05:59:27.152Z,14.80
2023-05-09T06:02:31.547Z,13.52
2023-05-09T06:05:35.873Z,12.63
2023-05-09T06:08:39.987Z,14.85
2023-05-09T06:11:43.806Z,14.63
2023-05-09T06:14:47.866Z,16.08
2023-05-09T06:17:51.618Z,15.85
2023-05-09T06:20:55.922Z,16.25
2023-05-09T06:24:09.930Z,16.33
2023-05-09T06:27:18.483Z,16.70
2023-05-09T06:30:26.373Z,16.08
2023-05-09T06:33:31.282Z,16.63
2023-05-09T06:36:35.663Z,15.75
2023-05-09T06:39:39.897Z,16.60
2023-05-09T06:42:43.653Z,16.48
2023-05-09T06:45:47.748Z,16.63
2023-05-09T06:48:51.685Z,18.85
2023-05-09T06:51:55.472Z,18.02
2023-05-09T06:54:58.954Z,17.27
2023-05-09T06:58:03.422Z,18.63
2023-05-09T07:01:07.307Z,18.15
2023-05-09T07:04:11.947Z,17.25
2023-05-09T07:07:16.819Z,18.20
2023-05-09T07:10:21.022Z,17.88
2023-05-09T07:13:24.334Z,17.35
2023-05-09T07:16:30.327Z,19.27
2023-05-09T07:19:33.765Z,19.05
2023-05-09T07:22:38.060Z,18.02
2023-05-09T07:25:41.578Z,19.42
2023-05-09T07:28:45.910Z,18.55
2023-05-09T07:31:49.948Z,19.00
2023-05-09T07:34:54.148Z,17.88
2023-05-09T07:37:57.823Z,19.85
2023-05-09T07:41:02.095Z,20.15
2023-05-09T07:44:05.710Z,21.00
2023-05-09T07:47:10.090Z,20.17
2023-05-09T07:50:13.806Z,20.05
2023-05-09T07:53:17.561Z,20.63
2023-05-09T07:56:22.045Z,22.65
2023-05-09T07:59:26.154Z,22.95
2023-05-09T08:02:29.586Z,22.30
2023-05-09T08:05:33.736Z,21.92
2023-05-09T08:08:38.904Z,21.77
2023-05-09T08:11:43.758Z,21.95
2023-05-09T08:14:47.548Z,22.58
2023-05-09T08:17:51.791Z,22.08
2023-05-09T08:20:55.584Z,22.38
2023-05-09T08:23:59.377Z,23.23
2023-05-09T08:27:03.316Z,22.70
2023-05-09T08:30:08.390Z,22.92
2023-05-09T08:33:12.214Z,22.67
2023-05-09T08:36:16.688Z,21.00
2023-05-09T08:39:23.513Z,23.00
2023-05-09T08:42:28.922Z,22.52
2023-05-09T08:45:48.341Z,23.73
2023-05-09T08:48:52.710Z,24.33
2023-05-09T08:51:57.404Z,23.98
2023-05-09T08:55:02.378Z,23.90
2023-05-09T08:58:06.349Z,24.65
2023-05-09T09:01:11.640Z,24.52
2023-05-09T09:04:15.329Z,25.80
2023-05-09T09:07:20.456Z,25.30
2023-05-09T09:10:26.430Z,27.45
2023-05-09T09:13:31.386Z,27.88
2023-05-09T09:16:36.575Z,27.80
2023-05-09T09:19:43.130Z,26.40
2023-05-09T09:22:49.132Z,26.10
2023-05-09T09:26:11.380Z,26.45
2023-05-09T09:29:16.072Z,25.58
2023-05-09T09:32:20.346Z,28.77
2023-05-09T09:35:25.471Z,29.40
2023-05-09T09:38:28.837Z,28.70
2023-05-09T09:41:39.358Z,29.33
2023-05-09T09:44:43.469Z,27.20
2023-05-09T09:47:49.092Z,29.20
2023-05-09T09:50:52.363Z,28.48
2023-05-09T09:53:56.271Z,27.20
2023-05-09T09:57:00.484Z,30.00
2023-05-09T10:00:06.681Z,28.90
2023-05-09T10:03:17.298Z,28.83
2023-05-09T10:06:21.214Z,28.17
2023-05-09T10:09:26.008Z,29.08
2023-05-09T10:12:29.516Z,29.67
2023-05-09T10:15:49.478Z,28.92
2023-05-09T10:18:56.792Z,29.90
2023-05-09T10:22:05.018Z,29.58
2023-05-09T10:25:15.745Z,29.55
2023-05-09T10:28:23.667Z,30.45
2023-05-09T10:31:29.486Z,31.00
2023-05-09T10:34:35.476Z,30.75
2023-05-09T10:37:40.096Z,30.77
2023-05-09T10:40:47.265Z,30.25
2023-05-09T10:43:51.669Z,31.92
2023-05-09T10:46:56.279Z,33.40
2023-05-09T10:50:00.818Z,33.50
2023-05-09T10:53:19.477Z,32.75
2023-05-09T10:56:36.377Z,33.88
2023-05-09T10:59:43.128Z,32.70
2023-05-09T11:03:08.387Z,36.40
2023-05-09T11:06:52.297Z,39.25
2023-05-09T11:10:18.958Z,39.58
2023-05-09T11:13:25.124Z,39.88
2023-05-09T11:16:28.381Z,39.20
2023-05-09T11:19:47.827Z,37.17
2023-05-09T11:22:54.103Z,35.45
2023-05-09T11:26:07.829Z,38.42
2023-05-09T11:29:11.217Z,35.67
2023-05-09T11:32:18.025Z,38.22
2023-05-09T11:35:23.715Z,38.25
2023-05-09T11:38:26.725Z,37.30
2023-05-09T11:41:31.026Z,39.17
2023-05-09T11:44:37.336Z,38.08
2023-05-09T11:47:41.364Z,38.60
2023-05-09T11:50:48.607Z,34.33
2023-05-09T11:53:52.094Z,36.28
2023-05-09T11:56:55.184Z,37.55
2023-05-09T12:00:01.428Z,41.63
2023-05-09T12:03:08.673Z,33.10
2023-05-09T12:06:17.780Z,33.55
2023-05-09T12:09:22.078Z,32.17
2023-05-09T12:12:25.904Z,31.90
2023-05-09T12:15:29.933Z,32.50
2023-05-09T12:18:33.605Z,31.55
2023-05-09T12:21:41.243Z,31.95
2023-05-09T12:24:44.271Z,31.60
2023-05-09T12:27:47.331Z,29.92
2023-05-09T12:30:51.996Z,31.13
2023-05-09T12:33:55.784Z,30.73
2023-05-09T12:37:00.651Z,31.92
2023-05-09T12:40:06.002Z,32.88
2023-05-09T12:43:09.734Z,34.30
2023-05-09T12:46:13.908Z,36.58
2023-05-09T12:49:22.591Z,34.30
2023-05-09T12:52:27.143Z,40.70
2023-05-09T12:55:32.269Z,40.17
2023-05-09T12:58:36.473Z,38.88
2023-05-09T13:01:40.259Z,37.97
2023-05-09T13:04:44.517Z,36.38
2023-05-09T13:07:58.334Z,39.78
2023-05-09T13:11:14.867Z,38.55
2023-05-09T13:14:22.206Z,35.80
2023-05-09T13:17:26.098Z,36.72
2023-05-09T13:20:30.242Z,37.05
2023-05-09T13:23:33.893Z,36.50
2023-05-09T13:26:37.339Z,38.50
2023-05-09T13:29:43.658Z,42.90
2023-05-09T13:32:57.415Z,47.77
2023-05-09T13:36:02.288Z,46.05
2023-05-09T13:39:05.672Z,48.50
2023-05-09T13:42:09.970Z,48.30
2023-05-09T13:45:13.109Z,50.10
2023-05-09T13:48:16.738Z,45.78
2023-05-09T13:51:20.027Z,38.47
2023-05-09T13:54:25.879Z,39.50
2023-05-09T13:57:29.415Z,37.33
2023-05-09T14:00:33.861Z,39.05
2023-05-09T14:03:37.826Z,35.10
2023-05-09T14:06:48.206Z,37.97
2023-05-09T14:09:56.224Z,35.95
2023-05-09T14:13:05.078Z,32.85
2023-05-09T14:16:09.471Z,31.42
2023-05-09T14:19:15.726Z,32.40
2023-05-09T14:22:18.631Z,30.67
2023-05-09T14:25:23.552Z,31.65
2023-05-09T14:28:27.486Z,31.40
2023-05-09T14:31:30.943Z,33.63
2023-05-09T14:34:34.319Z,32.58
2023-05-09T14:37:37.995Z,30.67
2023-05-09T14:40:41.625Z,30.48
2023-05-09T14:43:44.870Z,29.92
2023-05-09T14:46:48.985Z,30.50
2023-05-09T14:49:53.172Z,29.67
2023-05-09T14:52:56.840Z,37.95
2023-05-09T14:56:00.146Z,35.83
2023-05-09T14:59:04.365Z,34.72
2023-05-09T15:02:07.776Z,32.58
2023-05-09T15:05:12.054Z,31.85
2023-05-09T15:08:15.376Z,36.38
2023-05-09T15:11:19.017Z,35.28
2023-05-09T15:14:22.552Z,33.45
2023-05-09T15:17:25.528Z,34.95
2023-05-09T15:20:29.350Z,33.30
2023-05-09T15:23:32.347Z,33.65
2023-05-09T15:26:36.567Z,32.88
2023-05-09T15:29:42.420Z,33.22
2023-05-09T15:32:45.504Z,33.35
2023-05-09T15:35:50.633Z,32.17
2023-05-09T15:38:53.749Z,31.65
2023-05-09T15:41:56.782Z,33.13
2023-05-09T15:45:00.384Z,32.53
2023-05-09T15:48:04.669Z,32.47
2023-05-09T15:51:07.785Z,31.55
2023-05-09T15:54:10.989Z,31.65
2023-05-09T15:57:15.142Z,33.20
2023-05-09T16:00:18.753Z,33.85
2023-05-09T16:03:23.961Z,33.15
2023-05-09T16:06:29.133Z,31.63
2023-05-09T16:09:33.891Z,31.75
2023-05-09T16:12:37.235Z,30.27
2023-05-09T16:15:41.658Z,38.90
2023-05-09T16:18:45.444Z,36.88
2023-05-09T16:21:49.400Z,35.97
2023-05-09T16:24:53.268Z,36.85
2023-05-09T16:27:57.200Z,36.75
2023-05-09T16:31:05.512Z,36.05
2023-05-09T16:34:09.411Z,36.25
2023-05-09T16:37:12.401Z,33.85
2023-05-09T16:40:16.478Z,35.08
2023-05-09T16:43:20.662Z,34.60
2023-05-09T16:46:24.823Z,32.15
2023-05-09T16:49:29.016Z,31.42
2023-05-09T16:52:32.708Z,32.85
2023-05-09T16:55:36.667Z,31.58
2023-05-09T16:58:40.350Z,30.88
2023-05-09T17:01:44.006Z,31.63
2023-05-09T17:04:48.041Z,30.45
2023-05-09T17:07:51.377Z,30.25
2023-05-09T17:10:55.476Z,30.33
2023-05-09T17:13:59.193Z,31.80
2023-05-09T17:17:03.318Z,30.75
2023-05-09T17:20:07.690Z,32.15
2023-05-09T17:23:11.655Z,30.17
2023-05-09T17:26:15.467Z,30.05
2023-05-09T17:29:19.421Z,31.15
2023-05-09T17:32:22.753Z,32.28
2023-05-09T17:35:26.829Z,31.25
2023-05-09T17:38:30.758Z,32.20
2023-05-09T17:41:34.861Z,33.78
2023-05-09T17:44:39.526Z,31.35
2023-05-09T17:47:43.109Z,30.92
2023-05-09T17:50:47.499Z,32.13
2023-05-09T17:53:53.596Z,29.20
2023-05-09T17:57:01.718Z,31.42
2023-05-09T18:00:08.824Z,30.75
2023-05-09T18:03:21.488Z,32.17
2023-05-09T18:06:24.642Z,32.58
2023-05-09T18:09:27.762Z,33.08
2023-05-09T18:12:31.982Z,32.03
2023-05-09T18:15:38.630Z,33.90
2023-05-09T18:18:42.835Z,32.42
2023-05-09T18:21:46.039Z,31.70
2023-05-09T18:24:50.296Z,30.02
2023-05-09T18:27:53.830Z,29.25
2023-05-09T18:31:01.757Z,29.00
2023-05-09T18:34:06.570Z,29.08
2023-05-09T18:37:11.220Z,31.60
2023-05-09T18:40:16.377Z,28.77
2023-05-09T18:43:22.399Z,29.50
2023-05-09T18:46:28.323Z,29.88
2023-05-09T18:49:32.443Z,30.27
2023-05-09T18:52:36.126Z,32.47
2023-05-09T18:55:39.806Z,31.23
2023-05-09T18:58:43.374Z,31.67
2023-05-09T19:01:47.623Z,34.33
2023-05-09T19:04:52.017Z,32.50
2023-05-09T19:07:56.125Z,31.27
2023-05-09T19:10:59.468Z,31.63
2023-05-09T19:14:03.459Z,30.92
2023-05-09T19:17:07.247Z,30.58
2023-05-09T19:20:11.507Z,28.55
2023-05-09T19:23:15.544Z,28.75
2023-05-09T19:26:20.037Z,29.02
2023-05-09T19:29:24.136Z,29.15
2023-05-09T19:32:27.874Z,27.55
2023-05-09T19:35:32.064Z,27.60
2023-05-09T19:38:35.881Z,29.73
2023-05-09T19:41:39.566Z,28.40
2023-05-09T19:44:43.348Z,27.40
2023-05-09T19:47:47.348Z,28.13
2023-05-09T19:50:56.302Z,28.13
2023-05-09T19:54:00.394Z,29.35
2023-05-09T19:57:06.778Z,28.58
2023-05-09T20:00:11.255Z,29.00
2023-05-09T20:03:15.802Z,29.02
2023-05-09T20:06:19.943Z,28.98
2023-05-09T20:09:23.417Z,28.30
2023-05-09T20:12:29.364Z,28.83
2023-05-09T20:15:34.049Z,30.23
2023-05-09T20:18:37.767Z,29.63
2023-05-09T20:21:40.727Z,30.00
2023-05-09T20:24:44.050Z,27.42
2023-05-09T20:27:47.781Z,28.17
2023-05-09T20:30:51.963Z,29.50
2023-05-09T20:33:56.153Z,29.25
2023-05-09T20:37:00.213Z,31.48
2023-05-09T20:40:07.040Z,30.65
2023-05-09T20:43:11.035Z,31.00
2023-05-09T20:46:14.743Z,27.80
2023-05-09T20:49:18.836Z,29.58
2023-05-09T20:52:22.585Z,28.42
2023-05-09T20:55:26.510Z,30.27
2023-05-09T20:58:34.126Z,30.67
2023-05-09T21:01:38.205Z,29.73
2023-05-09T21:04:42.004Z,29.65
2023-05-09T21:07:46.057Z,29.30
2023-05-09T21:10:53.070Z,27.90
2023-05-09T21:13:56.785Z,28.30
2023-05-09T21:17:00.635Z,28.05
2023-05-09T21:20:04.691Z,28.33
2023-05-09T21:23:09.405Z,26.35
2023-05-09T21:26:12.885Z,26.27
2023-05-09T21:29:16.916Z,28.17
2023-05-09T21:32:20.602Z,26.42
2023-05-09T21:35:24.168Z,28.35
2023-05-09T21:38:27.794Z,29.55
2023-05-09T21:41:31.822Z,30.50
2023-05-09T21:44:36.952Z,31.10
2023-05-09T21:47:41.523Z,29.83
2023-05-09T21:50:46.634Z,30.88
2023-05-09T21:53:50.782Z,31.50
2023-05-09T21:56:54.351Z,32.42
2023-05-09T22:00:02.059Z,30.52
2023-05-09T22:03:15.829Z,31.92
2023-05-09T22:06:19.965Z,31.40
2023-05-09T22:09:24.165Z,30.63
2023-05-09T22:12:28.191Z,29.92
2023-05-09T22:15:31.859Z,29.40
2023-05-09T22:18:36.079Z,33.70
2023-05-09T22:21:39.539Z,34.00
2023-05-09T22:24:43.382Z,32.97
2023-05-09T22:27:47.379Z,34.67
2023-05-09T22:30:51.347Z,35.20
2023-05-09T22:33:55.054Z,34.90
2023-05-09T22:36:58.417Z,34.38
2023-05-09T22:40:02.099Z,37.70
2023-05-09T22:43:05.954Z,38.20
2023-05-09T22:46:09.706Z,38.08
2023-05-09T22:49:13.918Z,38.72
2023-05-09T22:52:17.740Z,35.63
2023-05-09T22:55:21.936Z,37.22
2023-05-09T22:58:25.622Z,38.08
2023-05-09T23:01:29.806Z,36.35
2023-05-09T23:04:33.449Z,39.17
2023-05-09T23:07:37.829Z,39.83
2023-05-09T23:10:41.368Z,40.08
2023-05-09T23:13:44.968Z,40.63
2023-05-09T23:16:49.757Z,37.55
2023-05-09T23:19:53.423Z,38.10
2023-05-09T23:22:57.243Z,41.72
2023-05-09T23:26:01.023Z,41.25
2023-05-09T23:29:04.671Z,42.20
2023-05-09T23:32:08.733Z,42.60
2023-05-09T23:35:12.285Z,42.83
2023-05-09T23:38:16.237Z,42.70
2023-05-09T23:41:19.943Z,36.67
2023-05-09T23:44:23.802Z,34.50
2023-05-09T23:47:27.685Z,31.95
2023-05-09T23:50:31.673Z,34.50
2023-05-09T23:53:35.720Z,34.20
2023-05-09T23:56:39.829Z,33.50
2023-05-09T23:59:43.730Z,33.88
